createdAt,value
2024-05-09T00:00:57.996Z,102266.53
2024-05-09T00:03:00.913Z,102273.72
2024-05-09T00:05:03.234Z,102267.50
2024-05-09T00:07:05.060Z,102254.34
2024-05-09T00:09:06.779Z,102265.78
2024-05-09T00:11:08.616Z,102272.91
2024-05-09T00:13:11.323Z,102274.66
2024-05-09T00:15:13.214Z,102264.09
2024-05-09T00:17:15.036Z,102262.41
2024-05-09T00:19:16.838Z,102258.75
2024-05-09T00:21:18.567Z,102260.56
2024-05-09T00:23:20.593Z,102257.03
2024-05-09T00:25:22.448Z,102261.53
2024-05-09T00:27:25.335Z,102264.31
2024-05-09T00:29:27.231Z,102260.78
2024-05-09T00:31:29.107Z,102256.50
2024-05-09T00:33:31.282Z,102257.44
2024-05-09T00:35:33.332Z,102256.50
2024-05-09T00:37:35.298Z,102252.94
2024-05-09T00:39:37.465Z,102255.59
2024-05-09T00:41:39.392Z,102260.03
2024-05-09T00:43:44.000Z,102255.72
2024-05-09T00:45:46.167Z,102259.25
2024-05-09T00:47:48.140Z,102258.28
2024-05-09T00:49:50.215Z,102242.59
2024-05-09T00:51:53.436Z,102250.38
2024-05-09T00:53:55.384Z,102247.78
2024-05-09T00:55:57.634Z,102242.53
2024-05-09T00:57:59.350Z,102242.53
2024-05-09T01:00:01.536Z,102236.41
2024-05-09T01:02:03.550Z,102236.41
2024-05-09T01:04:05.757Z,102232.00
2024-05-09T01:06:07.509Z,102237.38
2024-05-09T01:08:09.958Z,102228.56
2024-05-09T01:10:21.163Z,102238.34
2024-05-09T01:12:29.862Z,102230.38
2024-05-09T01:14:31.713Z,102234.81
2024-05-09T01:16:33.858Z,102233.91
2024-05-09T01:18:35.873Z,102232.13
2024-05-09T01:20:42.215Z,102235.75
2024-05-09T01:22:47.283Z,102235.84
2024-05-09T01:24:49.635Z,102232.31
2024-05-09T01:26:51.524Z,102227.91
2024-05-09T01:28:53.527Z,102217.38
2024-05-09T01:30:55.360Z,102220.91
2024-05-09T01:32:57.272Z,102219.13
2024-05-09T01:34:59.204Z,102219.13
2024-05-09T01:37:00.942Z,102222.75
2024-05-09T01:39:03.018Z,102228.09
2024-05-09T01:41:05.174Z,102222.75
2024-05-09T01:43:08.681Z,102221.88
2024-05-09T01:45:12.283Z,102223.59
2024-05-09T01:47:17.461Z,102221.88
2024-05-09T01:49:19.902Z,102226.38
2024-05-09T01:51:21.747Z,102219.31
2024-05-09T01:53:23.507Z,102218.47
2024-05-09T01:55:25.854Z,102216.72
2024-05-09T01:57:27.567Z,102212.34
2024-05-09T01:59:29.327Z,102215.97
2024-05-09T02:01:31.143Z,102214.25
2024-05-09T02:03:53.166Z,102210.81
2024-05-09T02:05:55.567Z,102202.78
2024-05-09T02:07:57.730Z,102210.81
2024-05-09T02:09:59.474Z,102204.56
2024-05-09T02:12:01.476Z,102209.84
2024-05-09T02:14:03.548Z,102212.53
2024-05-09T02:16:11.316Z,102208.16
2024-05-09T02:18:13.739Z,102215.28
2024-05-09T02:20:22.630Z,102211.75
2024-05-09T02:22:31.379Z,102211.75
2024-05-09T02:24:33.119Z,102218.09
2024-05-09T02:26:35.255Z,102211.00
2024-05-09T02:28:37.077Z,102211.94
2024-05-09T02:30:41.394Z,102206.59
2024-05-09T02:32:44.164Z,102203.19
2024-05-09T02:34:46.315Z,102198.88
2024-05-09T02:36:48.076Z,102207.56
2024-05-09T02:38:49.873Z,102199.53
2024-05-09T02:40:51.661Z,102197.72
2024-05-09T02:42:53.365Z,102196.00
2024-05-09T02:44:55.331Z,102192.34
2024-05-09T02:46:57.067Z,102194.19
2024-05-09T02:48:58.816Z,102197.81
2024-05-09T02:51:01.624Z,102195.16
2024-05-09T02:53:03.575Z,102196.09
2024-05-09T02:55:05.397Z,102187.19
2024-05-09T02:57:07.271Z,102189.88
2024-05-09T02:59:09.044Z,102187.38
2024-05-09T03:01:10.910Z,102196.19
2024-05-09T03:03:14.647Z,102189.97
2024-05-09T03:05:17.645Z,102189.13
2024-05-09T03:07:20.309Z,102183.97
2024-05-09T03:09:23.883Z,102188.16
2024-05-09T03:11:26.092Z,102187.31
2024-05-09T03:13:28.043Z,102179.28
2024-05-09T03:15:33.102Z,102183.78
2024-05-09T03:17:39.846Z,102179.34
2024-05-09T03:19:41.947Z,102183.78
2024-05-09T03:21:43.689Z,102182.03
2024-05-09T03:23:45.584Z,102178.50
2024-05-09T03:25:47.559Z,102181.19
2024-05-09T03:27:49.285Z,102176.03
2024-05-09T03:29:51.512Z,102175.28
2024-05-09T03:31:53.310Z,102177.84
2024-05-09T03:33:55.253Z,102178.69
2024-05-09T03:35:57.022Z,102180.44
2024-05-09T03:37:58.756Z,102185.78
2024-05-09T03:40:02.089Z,102184.81
2024-05-09T03:42:04.847Z,102182.16
2024-05-09T03:44:06.648Z,102171.44
2024-05-09T03:46:08.407Z,102175.94
2024-05-09T03:48:10.552Z,102173.25
2024-05-09T03:50:21.863Z,102177.75
2024-05-09T03:52:27.942Z,102173.47
2024-05-09T03:54:29.623Z,102172.59
2024-05-09T03:56:31.437Z,102180.72
2024-05-09T03:58:34.010Z,102177.19
2024-05-09T04:00:39.015Z,102179.94
2024-05-09T04:02:43.371Z,102178.03
2024-05-09T04:04:45.256Z,102178.16
2024-05-09T04:06:47.038Z,102186.19
2024-05-09T04:08:51.822Z,102190.56
2024-05-09T04:10:53.646Z,102188.84
2024-05-09T04:12:55.918Z,102190.56
2024-05-09T04:14:58.695Z,102191.53
2024-05-09T04:17:00.455Z,102194.22
2024-05-09T04:19:02.504Z,102186.19
2024-05-09T04:21:05.209Z,102194.28
2024-05-09T04:23:08.941Z,102191.63
2024-05-09T04:25:11.410Z,102195.25
2024-05-09T04:27:13.398Z,102192.66
2024-05-09T04:29:15.244Z,102194.50
2024-05-09T04:31:17.142Z,102185.91
2024-05-09T04:33:20.141Z,102189.13
2024-05-09T04:35:22.505Z,102194.50
2024-05-09T04:37:25.511Z,102199.00
2024-05-09T04:39:27.547Z,102194.50
2024-05-09T04:41:30.077Z,102190.97
2024-05-09T04:43:33.260Z,102186.47
2024-05-09T04:45:35.622Z,102188.47
2024-05-09T04:47:37.838Z,102175.09
2024-05-09T04:49:39.713Z,102185.78
2024-05-09T04:51:41.583Z,102185.78
2024-05-09T04:53:43.388Z,102187.63
2024-05-09T04:55:45.678Z,102181.50
2024-05-09T04:57:47.485Z,102182.47
2024-05-09T04:59:49.252Z,102182.56
2024-05-09T05:01:51.164Z,102184.47
2024-05-09T05:03:53.381Z,102184.47
2024-05-09T05:05:56.328Z,102172.91
2024-05-09T05:07:58.235Z,102170.22
2024-05-09T05:10:00.118Z,102178.25
2024-05-09T05:12:02.946Z,102171.94
2024-05-09T05:14:04.994Z,102182.75
2024-05-09T05:16:06.895Z,102185.53
2024-05-09T05:18:08.774Z,102189.91
2024-05-09T05:20:15.072Z,102195.25
2024-05-09T05:22:18.282Z,102190.88
2024-05-09T05:24:20.194Z,102187.34
2024-05-09T05:26:22.217Z,102189.22
2024-05-09T05:28:24.149Z,102199.06
2024-05-09T05:30:29.321Z,102197.34
2024-05-09T05:32:36.309Z,102196.56
2024-05-09T05:34:38.236Z,102205.47
2024-05-09T05:36:39.910Z,102208.06
2024-05-09T05:38:41.980Z,102205.38
2024-05-09T05:40:43.924Z,102207.19
2024-05-09T05:42:45.847Z,102208.06
2024-05-09T05:44:47.642Z,102212.56
2024-05-09T05:46:49.365Z,102211.59
2024-05-09T05:48:54.403Z,102219.63
2024-05-09T05:50:56.209Z,102216.16
2024-05-09T05:52:58.144Z,102224.19
2024-05-09T05:54:59.898Z,102217.97
2024-05-09T05:57:01.684Z,102226.97
2024-05-09T05:59:03.535Z,102227.84
2024-05-09T06:01:05.330Z,102222.47
2024-05-09T06:03:07.909Z,102228.81
2024-05-09T06:05:10.058Z,102224.38
2024-05-09T06:07:11.872Z,102223.34
2024-05-09T06:09:13.930Z,102225.34
2024-05-09T06:11:15.785Z,102217.44
2024-05-09T06:13:17.565Z,102226.88
2024-05-09T06:15:19.283Z,102231.28
2024-05-09T06:17:21.472Z,102231.28
2024-05-09T06:19:26.631Z,102235.78
2024-05-09T06:21:28.397Z,102236.72
2024-05-09T06:23:30.243Z,102235.88
2024-05-09T06:25:32.162Z,102238.66
2024-05-09T06:27:34.239Z,102242.19
2024-05-09T06:29:38.461Z,102239.56
2024-05-09T06:31:41.597Z,102241.31
2024-05-09T06:33:43.529Z,102236.81
2024-05-09T06:35:46.073Z,102232.41
2024-05-09T06:37:47.887Z,102234.16
2024-05-09T06:39:49.577Z,102244.84
2024-05-09T06:41:51.589Z,102238.66
2024-05-09T06:43:53.394Z,102232.41
2024-05-09T06:45:55.327Z,102233.38
2024-05-09T06:47:57.456Z,102237.88
2024-05-09T06:49:59.374Z,102240.53
2024-05-09T06:52:01.200Z,102247.72
2024-05-09T06:54:03.081Z,102238.91
2024-05-09T06:56:05.199Z,102243.53
2024-05-09T06:58:08.463Z,102244.38
2024-05-09T07:00:15.634Z,102254.97
2024-05-09T07:02:21.080Z,102250.66
2024-05-09T07:04:22.992Z,102256.78
2024-05-09T07:06:25.150Z,102254.13
2024-05-09T07:08:26.951Z,102260.25
2024-05-09T07:10:34.780Z,102249.72
2024-05-09T07:12:37.803Z,102246.09
2024-05-09T07:14:39.758Z,102247.91
2024-05-09T07:16:41.625Z,102248.88
2024-05-09T07:18:43.728Z,102253.25
2024-05-09T07:20:46.412Z,102259.56
2024-05-09T07:22:48.454Z,102259.66
2024-05-09T07:24:50.264Z,102256.97
2024-05-09T07:26:52.232Z,102265.00
2024-05-09T07:28:53.976Z,102264.16
2024-05-09T07:30:55.761Z,102257.09
2024-05-09T07:32:57.861Z,102254.41
2024-05-09T07:34:59.785Z,102255.25
2024-05-09T07:37:02.165Z,102249.31
2024-05-09T07:39:05.626Z,102261.38
2024-05-09T07:41:07.471Z,102260.50
2024-05-09T07:43:11.633Z,102256.97
2024-05-09T07:45:39.121Z,102262.31
2024-05-09T07:49:12.048Z,102255.25
2024-05-09T07:51:54.765Z,102259.66
2024-05-09T07:54:34.352Z,102250.00
2024-05-09T07:56:36.408Z,102255.34
2024-05-09T07:58:38.713Z,102258.13
2024-05-09T08:00:40.699Z,102259.84
2024-05-09T08:02:42.640Z,102258.19
2024-05-09T08:04:44.478Z,102257.09
2024-05-09T08:06:46.326Z,102250.78
2024-05-09T08:08:48.392Z,102251.72
2024-05-09T08:10:52.777Z,102255.44
2024-05-09T08:12:54.644Z,102256.97
2024-05-09T08:14:56.523Z,102253.44
2024-05-09T08:16:58.327Z,102261.47
2024-05-09T08:19:00.391Z,102258.88
2024-05-09T08:21:02.463Z,102259.75
2024-05-09T08:23:06.488Z,102259.84
2024-05-09T08:25:09.721Z,102267.88
2024-05-09T08:27:12.623Z,102266.03
2024-05-09T08:29:14.771Z,102258.13
2024-05-09T08:31:16.629Z,102256.31
2024-05-09T08:33:21.424Z,102254.50
2024-05-09T08:35:25.889Z,102257.16
2024-05-09T08:37:31.112Z,102251.72
2024-05-09T08:39:36.835Z,102247.25
2024-05-09T08:41:42.191Z,102250.78
2024-05-09T08:43:44.447Z,102253.44
2024-05-09T08:45:47.019Z,102252.59
2024-05-09T08:47:50.880Z,102247.25
2024-05-09T08:49:58.292Z,102249.06
2024-05-09T08:52:00.224Z,102245.50
2024-05-09T08:54:02.060Z,102245.50
2024-05-09T08:56:05.431Z,102229.63
2024-05-09T08:58:07.413Z,102241.03
2024-05-09T09:00:14.829Z,102241.88
2024-05-09T09:02:19.991Z,102233.00
2024-05-09T09:04:22.852Z,102229.38
2024-05-09T09:06:25.328Z,102224.78
2024-05-09T09:08:27.931Z,102221.34
2024-05-09T09:10:32.294Z,102216.75
2024-05-09T09:12:35.680Z,102222.13
2024-05-09T09:14:37.410Z,102216.84
2024-05-09T09:16:39.186Z,102215.03
2024-05-09T09:18:44.315Z,102217.69
2024-05-09T09:20:46.293Z,102215.03
2024-05-09T09:22:48.086Z,102216.84
2024-05-09T09:24:49.914Z,102215.13
2024-05-09T09:26:51.939Z,102215.97
2024-05-09T09:28:53.789Z,102219.50
2024-05-09T09:31:03.225Z,102216.84
2024-05-09T09:33:06.551Z,102223.16
2024-05-09T09:35:08.532Z,102208.03
2024-05-09T09:37:11.229Z,102219.50
2024-05-09T09:39:14.467Z,102211.50
2024-05-09T09:41:19.854Z,102200.78
2024-05-09T09:43:22.737Z,102206.13
2024-05-09T09:45:25.089Z,102197.16
2024-05-09T09:47:27.351Z,102200.78
2024-05-09T09:49:32.855Z,102203.47
2024-05-09T09:51:35.119Z,102206.13
2024-05-09T09:53:38.268Z,102202.59
2024-05-09T09:55:40.398Z,102200.78
2024-05-09T09:57:43.962Z,102203.47
2024-05-09T09:59:46.883Z,102208.72
2024-05-09T10:01:48.825Z,102208.72
2024-05-09T10:03:50.795Z,102200.72
2024-05-09T10:05:53.376Z,102202.22
2024-05-09T10:07:55.681Z,102202.97
2024-05-09T10:09:57.956Z,102208.81
2024-05-09T10:12:09.749Z,102203.28
2024-05-09T10:14:11.783Z,102196.81
2024-05-09T10:16:20.445Z,102202.81
2024-05-09T10:18:28.320Z,102200.03
2024-05-09T10:20:44.772Z,102200.69
2024-05-09T10:22:50.555Z,102190.88
2024-05-09T10:24:54.058Z,102188.94
2024-05-09T10:26:56.003Z,102190.00
2024-05-09T10:28:58.746Z,102186.25
2024-05-09T10:31:14.854Z,102192.28
2024-05-09T10:33:19.823Z,102189.41
2024-05-09T10:35:22.814Z,102186.72
2024-05-09T10:37:26.662Z,102192.84
2024-05-09T10:39:34.994Z,102185.56
2024-05-09T10:41:38.245Z,102187.38
2024-05-09T10:43:41.036Z,102174.13
2024-05-09T10:45:42.756Z,102176.88
2024-05-09T10:47:44.848Z,102169.72
2024-05-09T10:49:47.204Z,102160.81
2024-05-09T10:51:49.477Z,102167.72
2024-05-09T10:53:52.701Z,102162.44
2024-05-09T10:55:57.999Z,102156.13
2024-05-09T10:57:59.838Z,102154.31
2024-05-09T11:00:01.524Z,102154.22
2024-05-09T11:02:04.753Z,102148.66
2024-05-09T11:04:08.345Z,102136.97
2024-05-09T11:06:11.593Z,102143.97
2024-05-09T11:08:13.587Z,102143.69
2024-05-09T11:10:21.001Z,102141.66
2024-05-09T11:12:29.404Z,102127.16
2024-05-09T11:14:31.401Z,102128.59
2024-05-09T11:16:33.232Z,102131.00
2024-05-09T11:18:38.111Z,102127.22
2024-05-09T11:20:41.247Z,102133.47
2024-05-09T11:22:43.128Z,102135.06
2024-05-09T11:24:44.835Z,102127.00
2024-05-09T11:26:46.780Z,102135.81
2024-05-09T11:28:50.960Z,102127.66
2024-05-09T11:30:52.819Z,102123.94
2024-05-09T11:32:54.740Z,102119.34
2024-05-09T11:34:56.470Z,102120.13
2024-05-09T11:36:58.247Z,102118.19
2024-05-09T11:39:00.746Z,102112.41
2024-05-09T11:41:03.260Z,102107.72
2024-05-09T11:43:08.130Z,102110.19
2024-05-09T11:45:09.880Z,102108.34
2024-05-09T11:47:11.672Z,102102.06
2024-05-09T11:49:13.661Z,102097.56
2024-05-09T11:51:15.444Z,102095.94
2024-05-09T11:53:17.200Z,102094.88
2024-05-09T11:55:19.116Z,102085.00
2024-05-09T11:57:21.207Z,102086.84
2024-05-09T11:59:22.942Z,102085.75
2024-05-09T12:01:27.686Z,102071.28
2024-05-09T12:03:29.876Z,102070.22
2024-05-09T12:05:32.289Z,102067.44
2024-05-09T12:07:34.507Z,102074.38
2024-05-09T12:09:36.410Z,102060.03
2024-05-09T12:11:38.305Z,102062.59
2024-05-09T12:13:40.222Z,102051.88
2024-05-09T12:15:42.569Z,102057.16
2024-05-09T12:17:49.585Z,102048.97
2024-05-09T12:19:52.878Z,102045.44
2024-05-09T12:21:54.743Z,102044.47
2024-05-09T12:23:56.684Z,102047.06
2024-05-09T12:25:58.414Z,102039.97
2024-05-09T12:28:00.689Z,102039.22
2024-05-09T12:30:03.431Z,102036.22
2024-05-09T12:32:06.485Z,102038.81
2024-05-09T12:34:08.396Z,102028.94
2024-05-09T12:36:10.517Z,102031.50
2024-05-09T12:38:12.210Z,102019.69
2024-05-09T12:40:22.817Z,102019.59
2024-05-09T12:42:33.757Z,102028.50
2024-05-09T12:44:36.152Z,102021.19
2024-05-09T12:46:38.090Z,102014.97
2024-05-09T12:48:40.116Z,102019.38
2024-05-09T12:50:42.272Z,102011.22
2024-05-09T12:52:44.153Z,102004.03
2024-05-09T12:54:45.915Z,102007.47
2024-05-09T12:56:47.717Z,101999.44
2024-05-09T12:58:49.629Z,101995.91
2024-05-09T13:00:52.200Z,102002.75
2024-05-09T13:02:54.447Z,102005.53
2024-05-09T13:04:57.036Z,101986.75
2024-05-09T13:06:58.920Z,101984.06
2024-05-09T13:09:00.743Z,101985.81
2024-05-09T13:11:02.505Z,101986.44
2024-05-09T13:13:04.813Z,101979.25
2024-05-09T13:15:06.816Z,101986.22
2024-05-09T13:17:08.727Z,101984.50
2024-05-09T13:19:10.522Z,101964.75
2024-05-09T13:21:12.294Z,101968.16
2024-05-09T13:23:14.194Z,101964.53
2024-05-09T13:25:16.017Z,101968.06
2024-05-09T13:27:17.887Z,101962.59
2024-05-09T13:29:19.641Z,101965.16
2024-05-09T13:31:21.372Z,101950.91
2024-05-09T13:33:23.429Z,101946.50
2024-05-09T13:35:25.200Z,101945.53
2024-05-09T13:37:27.038Z,101944.56
2024-05-09T13:39:28.774Z,101944.56
2024-05-09T13:41:30.567Z,101946.41
2024-05-09T13:43:32.635Z,101947.19
2024-05-09T13:45:35.297Z,101937.50
2024-05-09T13:47:37.334Z,101938.34
2024-05-09T13:49:39.154Z,101934.72
2024-05-09T13:51:40.904Z,101933.84
2024-05-09T13:53:43.133Z,101928.41
2024-05-09T13:55:44.902Z,101932.88
2024-05-09T13:57:46.667Z,101920.38
2024-05-09T13:59:48.460Z,101922.16
2024-05-09T14:01:50.306Z,101916.88
2024-05-09T14:03:52.894Z,101904.47
2024-05-09T14:05:55.049Z,101907.16
2024-05-09T14:07:57.394Z,101905.31
2024-05-09T14:09:59.182Z,101908.00
2024-05-09T14:12:00.925Z,101901.03
2024-05-09T14:14:03.051Z,101900.03
2024-05-09T14:16:05.652Z,101904.69
2024-05-09T14:18:11.257Z,101896.50
2024-05-09T14:20:23.267Z,101895.66
2024-05-09T14:22:31.758Z,101890.28
2024-05-09T14:24:33.603Z,101882.34
2024-05-09T14:26:35.374Z,101893.81
2024-05-09T14:28:37.057Z,101888.59
2024-05-09T14:30:39.497Z,101888.59
2024-05-09T14:32:41.681Z,101888.59
2024-05-09T14:34:43.642Z,101878.94
2024-05-09T14:36:45.595Z,101876.03
2024-05-09T14:38:47.340Z,101879.34
2024-05-09T14:40:50.528Z,101862.50
2024-05-09T14:42:52.573Z,101869.59
2024-05-09T14:44:54.423Z,101868.72
2024-05-09T14:46:56.213Z,101874.97
2024-05-09T14:49:00.027Z,101868.72
2024-05-09T14:51:01.820Z,101871.53
2024-05-09T14:53:03.709Z,101866.16
2024-05-09T14:55:06.248Z,101866.25
2024-05-09T14:57:08.792Z,101863.47
2024-05-09T14:59:10.709Z,101867.22
2024-05-09T15:01:12.464Z,101854.66
2024-05-09T15:03:14.569Z,101863.56
2024-05-09T15:05:16.367Z,101858.34
2024-05-09T15:07:18.223Z,101861.00
2024-05-09T15:09:20.086Z,101854.91
2024-05-09T15:11:22.206Z,101856.72
2024-05-09T15:13:25.752Z,101858.56
2024-05-09T15:15:27.672Z,101854.19
2024-05-09T15:17:30.753Z,101852.44
2024-05-09T15:19:32.923Z,101841.84
2024-05-09T15:21:34.891Z,101844.53
2024-05-09T15:23:36.672Z,101845.50
2024-05-09T15:25:38.640Z,101841.94
2024-05-09T15:27:40.406Z,101847.44
2024-05-09T15:29:42.144Z,101847.44
2024-05-09T15:31:44.499Z,101839.53
2024-05-09T15:33:46.435Z,101838.63
2024-05-09T15:35:48.541Z,101838.75
2024-05-09T15:37:50.488Z,101832.66
2024-05-09T15:39:52.304Z,101830.81
2024-05-09T15:41:55.861Z,101837.16
2024-05-09T15:43:57.580Z,101839.00
2024-05-09T15:45:59.372Z,101832.03
2024-05-09T15:48:02.042Z,101836.41
2024-05-09T15:50:06.279Z,101832.88
2024-05-09T15:52:09.865Z,101831.03
2024-05-09T15:54:11.763Z,101832.03
2024-05-09T15:56:13.528Z,101830.31
2024-05-09T15:58:15.881Z,101829.47
2024-05-09T16:00:25.092Z,101832.25
2024-05-09T16:02:35.640Z,101839.44
2024-05-09T16:04:37.867Z,101832.25
2024-05-09T16:06:39.820Z,101831.38
2024-05-09T16:08:44.529Z,101830.53
2024-05-09T16:10:47.278Z,101818.97
2024-05-09T16:12:49.459Z,101827.00
2024-05-09T16:14:52.293Z,101819.19
2024-05-09T16:16:54.151Z,101816.72
2024-05-09T16:18:56.069Z,101812.09
2024-05-09T16:20:59.598Z,101818.34
2024-05-09T16:23:01.301Z,101819.19
2024-05-09T16:25:03.145Z,101816.50
2024-05-09T16:27:05.040Z,101814.69
2024-05-09T16:29:06.972Z,101813.84
2024-05-09T16:31:08.727Z,101812.97
2024-05-09T16:33:11.825Z,101811.25
2024-05-09T16:35:13.781Z,101808.56
2024-05-09T16:37:15.729Z,101807.72
2024-05-09T16:39:18.048Z,101809.66
2024-05-09T16:41:19.821Z,101801.09
2024-05-09T16:43:21.674Z,101807.94
2024-05-09T16:45:23.418Z,101807.94
2024-05-09T16:47:25.489Z,101795.59
2024-05-09T16:49:27.573Z,101806.09
2024-05-09T16:51:29.438Z,101797.34
2024-05-09T16:53:31.156Z,101797.22
2024-05-09T16:55:33.107Z,101794.53
2024-05-09T16:57:35.038Z,101780.28
2024-05-09T16:59:36.808Z,101789.19
2024-05-09T17:01:38.607Z,101780.28
2024-05-09T17:03:40.495Z,101783.81
2024-05-09T17:05:42.942Z,101784.78
2024-05-09T17:07:47.810Z,101773.31
2024-05-09T17:09:49.653Z,101778.59
2024-05-09T17:11:51.418Z,101773.09
2024-05-09T17:13:53.187Z,101775.91
2024-05-09T17:15:55.059Z,101779.44
2024-05-09T17:17:57.199Z,101781.47
2024-05-09T17:19:58.948Z,101771.63
2024-05-09T17:22:01.025Z,101757.69
2024-05-09T17:24:02.728Z,101773.31
2024-05-09T17:26:04.557Z,101768.94
2024-05-09T17:28:10.569Z,101772.47
2024-05-09T17:30:17.828Z,101766.25
2024-05-09T17:32:25.904Z,101763.56
2024-05-09T17:34:27.817Z,101763.66
2024-05-09T17:36:29.599Z,101762.81
2024-05-09T17:38:34.624Z,101768.19
2024-05-09T17:40:38.217Z,101761.97
2024-05-09T17:42:41.021Z,101762.94
2024-05-09T17:44:42.879Z,101755.97
2024-05-09T17:46:44.791Z,101764.78
2024-05-09T17:48:46.896Z,101761.34
2024-05-09T17:50:48.698Z,101770.13
2024-05-09T17:52:52.877Z,101771.97
2024-05-09T17:54:54.622Z,101765.72
2024-05-09T17:56:56.470Z,101762.09
2024-05-09T17:58:58.487Z,101764.88
2024-05-09T18:01:00.658Z,101764.03
2024-05-09T18:03:02.546Z,101759.50
2024-05-09T18:05:05.299Z,101767.56
2024-05-09T18:07:07.652Z,101757.69
2024-05-09T18:09:09.546Z,101764.88
2024-05-09T18:11:11.525Z,101764.03
2024-05-09T18:13:13.799Z,101761.34
2024-05-09T18:15:15.624Z,101765.72
2024-05-09T18:17:19.662Z,101755.00
2024-05-09T18:19:22.101Z,101764.78
2024-05-09T18:21:24.082Z,101764.78
2024-05-09T18:23:25.863Z,101762.09
2024-05-09T18:25:27.608Z,101760.38
2024-05-09T18:27:29.587Z,101765.50
2024-05-09T18:29:31.431Z,101759.28
2024-05-09T18:31:33.473Z,101762.81
2024-05-09T18:33:35.542Z,101759.19
2024-05-09T18:35:37.401Z,101763.66
2024-05-09T18:37:40.203Z,101761.00
2024-05-09T18:39:42.335Z,101761.00
2024-05-09T18:41:44.179Z,101761.00
2024-05-09T18:43:50.183Z,101761.00
2024-05-09T18:45:52.667Z,101761.97
2024-05-09T18:47:55.336Z,101770.00
2024-05-09T18:49:57.242Z,101766.47
2024-05-09T18:51:59.019Z,101767.34
2024-05-09T18:54:01.053Z,101769.28
2024-05-09T18:56:02.947Z,101768.31
2024-05-09T18:58:05.188Z,101778.19
2024-05-09T19:00:12.808Z,101773.66
2024-05-09T19:02:18.044Z,101770.88
2024-05-09T19:04:19.978Z,101776.22
2024-05-09T19:06:24.557Z,101769.16
2024-05-09T19:08:27.104Z,101773.75
2024-05-09T19:10:34.020Z,101775.38
2024-05-09T19:12:37.149Z,101778.06
2024-05-09T19:14:38.990Z,101782.44
2024-05-09T19:16:41.966Z,101776.56
2024-05-09T19:18:43.856Z,101779.03
2024-05-09T19:20:45.796Z,101777.31
2024-05-09T19:22:47.741Z,101784.47
2024-05-09T19:24:49.625Z,101780.97
2024-05-09T19:26:51.478Z,101780.00
2024-05-09T19:28:53.280Z,101783.53
2024-05-09T19:30:55.267Z,101782.69
2024-05-09T19:32:57.197Z,101781.81
2024-05-09T19:34:59.951Z,101786.22
2024-05-09T19:37:02.419Z,101783.53
2024-05-09T19:39:04.127Z,101786.22
2024-05-09T19:41:05.900Z,101778.19
2024-05-09T19:43:08.005Z,101782.69
2024-05-09T19:45:09.884Z,101778.19
2024-05-09T19:47:12.013Z,101783.53
2024-05-09T19:49:13.907Z,101784.38
2024-05-09T19:51:15.732Z,101789.75
2024-05-09T19:53:17.514Z,101785.38
2024-05-09T19:55:19.531Z,101790.59
2024-05-09T19:57:21.448Z,101793.41
2024-05-09T19:59:23.168Z,101798.66
2024-05-09T20:01:25.073Z,101797.78
2024-05-09T20:03:26.941Z,101803.03
2024-05-09T20:05:30.656Z,101803.03
2024-05-09T20:07:35.818Z,101814.59
2024-05-09T20:09:38.098Z,101808.28
2024-05-09T20:11:39.989Z,101809.13
2024-05-09T20:13:41.809Z,101801.31
2024-05-09T20:15:43.748Z,101810.00
2024-05-09T20:17:45.757Z,101804.75
2024-05-09T20:19:47.702Z,101810.13
2024-05-09T20:21:49.588Z,101810.97
2024-05-09T20:23:51.356Z,101815.34
2024-05-09T20:25:53.074Z,101809.13
2024-05-09T20:27:54.811Z,101813.66
2024-05-09T20:29:56.560Z,101808.28
2024-05-09T20:31:58.305Z,101805.59
2024-05-09T20:34:00.101Z,101804.75
2024-05-09T20:36:02.545Z,101815.34
2024-05-09T20:38:04.975Z,101814.38
2024-05-09T20:40:12.054Z,101802.81
2024-05-09T20:42:17.620Z,101811.69
2024-05-09T20:44:19.432Z,101802.94
2024-05-09T20:46:21.331Z,101808.28
2024-05-09T20:48:24.702Z,101809.00
2024-05-09T20:50:35.991Z,101810.00
2024-05-09T20:52:41.688Z,101813.53
2024-05-09T20:54:43.662Z,101810.97
2024-05-09T20:56:45.383Z,101813.53
2024-05-09T20:58:47.079Z,101816.19
2024-05-09T21:00:48.934Z,101814.38
2024-05-09T21:02:50.794Z,101806.34
2024-05-09T21:04:52.692Z,101815.25
2024-05-09T21:06:54.599Z,101810.75
2024-05-09T21:08:58.379Z,101812.44
2024-05-09T21:11:00.263Z,101815.13
2024-05-09T21:13:03.326Z,101807.09
2024-05-09T21:15:06.217Z,101807.00
2024-05-09T21:17:08.353Z,101802.69
2024-05-09T21:19:10.245Z,101805.25
2024-05-09T21:21:12.170Z,101809.66
2024-05-09T21:23:13.887Z,101798.41
2024-05-09T21:25:15.899Z,101804.53
2024-05-09T21:27:18.458Z,101813.28
2024-05-09T21:29:20.239Z,101807.09
2024-05-09T21:31:22.038Z,101808.78
2024-05-09T21:33:23.928Z,101810.63
2024-05-09T21:35:25.924Z,101812.34
2024-05-09T21:37:27.645Z,101812.34
2024-05-09T21:39:30.159Z,101803.44
2024-05-09T21:41:31.854Z,101802.47
2024-05-09T21:43:34.248Z,101797.97
2024-05-09T21:45:36.947Z,101802.47
2024-05-09T21:47:39.038Z,101802.47
2024-05-09T21:49:41.247Z,101800.75
2024-05-09T21:51:43.098Z,101799.81
2024-05-09T21:53:44.847Z,101798.94
2024-05-09T21:55:46.744Z,101796.28
2024-05-09T21:57:48.577Z,101797.34
2024-05-09T21:59:50.346Z,101796.38
2024-05-09T22:01:52.332Z,101803.56
2024-05-09T22:03:54.303Z,101806.34
2024-05-09T22:05:56.047Z,101803.66
2024-05-09T22:07:57.778Z,101807.94
2024-05-09T22:09:59.584Z,101809.66
2024-05-09T22:12:01.491Z,101805.25
2024-05-09T22:14:03.525Z,101811.47
2024-05-09T22:16:05.830Z,101816.81
2024-05-09T22:18:08.839Z,101815.03
2024-05-09T22:20:18.277Z,101818.56
2024-05-09T22:22:24.099Z,101818.56
2024-05-09T22:24:25.973Z,101825.75
2024-05-09T22:26:27.810Z,101826.69
2024-05-09T22:28:29.562Z,101822.19
2024-05-09T22:30:36.185Z,101816.97
2024-05-09T22:32:41.361Z,101811.69
2024-05-09T22:34:43.127Z,101815.25
2024-05-09T22:36:45.213Z,101822.31
2024-05-09T22:38:46.964Z,101817.94
2024-05-09T22:40:49.999Z,101815.25
2024-05-09T22:42:52.239Z,101812.44
2024-05-09T22:44:54.043Z,101817.81
2024-05-09T22:46:56.014Z,101807.09
2024-05-09T22:48:57.840Z,101808.78
2024-05-09T22:50:59.700Z,101806.22
2024-05-09T22:53:01.489Z,101802.69
2024-05-09T22:55:04.724Z,101804.41
2024-05-09T22:57:06.467Z,101805.38
2024-05-09T22:59:08.350Z,101796.50
2024-05-09T23:01:15.129Z,101804.53
2024-05-09T23:03:18.561Z,101799.28
2024-05-09T23:05:20.538Z,101805.38
2024-05-09T23:07:22.496Z,101808.06
2024-05-09T23:09:24.544Z,101807.09
2024-05-09T23:11:26.323Z,101806.09
2024-05-09T23:13:28.116Z,101805.25
2024-05-09T23:15:29.944Z,101808.78
2024-05-09T23:17:31.792Z,101807.84
2024-05-09T23:19:34.701Z,101807.00
2024-05-09T23:21:42.898Z,101803.44
2024-05-09T23:23:44.661Z,101807.00